| Date | Time | Temp. (oF) | Dew Point (oF) | Rel. Hum. (%) | Press. (in.) | Wind Dir. | Wind Speed (mph) | Hourly Rainfall (in.) |
|
|---|---|---|---|---|---|---|---|---|---|
| 1 | 05/17 | 00:00 | 54 | 40 | 60 | 30.09 | W | 2 | 0.00 |
| 2 | 05/16 | 23:00 | 56 | 40 | 56 | 30.07 | NW | 2 | 0.00 |
| 3 | 05/16 | 22:00 | 58 | 40 | 52 | 30.06 | WNW | 5 | 0.00 |
| 4 | 05/16 | 21:00 | 60 | 42 | 52 | 30.02 | NW | 3 | 0.00 |
| 5 | 05/16 | 20:00 | 62 | 43 | 51 | 30.00 | NW | 3 | 0.00 |
| 6 | 05/16 | 19:00 | 64 | 43 | 48 | 29.98 | WNW | 3 | 0.00 |
| 7 | 05/16 | 18:00 | 64 | 44 | 49 | 29.97 | S | 4 | 0.00 |
| 8 | 05/16 | 17:00 | 66 | 44 | 46 | 29.95 | WSW | 4 | 0.00 |
| 9 | 05/16 | 16:00 | 65 | 43 | 45 | 29.95 | W | 4 | 0.00 |
| 10 | 05/16 | 15:00 | 64 | 43 | 48 | 29.97 | NW | 7 | 0.00 |
| 11 | 05/16 | 14:00 | 64 | 44 | 50 | 29.98 | NW | 7 | 0.00 |
| 12 | 05/16 | 13:00 | 63 | 45 | 52 | 29.99 | NW | 6 | 0.00 |
| 13 | 05/16 | 12:00 | 64 | 46 | 54 | 29.99 | SW | 4 | 0.00 |
| 14 | 05/16 | 11:00 | 63 | 47 | 58 | 29.99 | NNW | 4 | 0.00 |
| 15 | 05/16 | 10:00 | 61 | 47 | 61 | 29.99 | WNW | 6 | 0.00 |
| 16 | 05/16 | 09:00 | 60 | 48 | 67 | 29.98 | NNW | 7 | 0.00 |
| 17 | 05/16 | 08:00 | 56 | 49 | 79 | 29.96 | WNW | 4 | 0.00 |
| 18 | 05/16 | 07:00 | 53 | 49 | 88 | 29.94 | WNW | 1 | 0.00 |
| 19 | 05/16 | 06:00 | 54 | 50 | 89 | 29.91 | NNW | 2 | 0.00 |
| 20 | 05/16 | 05:00 | 55 | 52 | 92 | 29.88 | NNW | 4 | 0.01 |
| 21 | 05/16 | 04:00 | 56 | 55 | 100 | 29.86 | W | 6 | 0.03 |
| 22 | 05/16 | 03:00 | 57 | 57 | 100 | 29.85 | SSW | 1 | 0.03 |
| 23 | 05/16 | 02:00 | 57 | 57 | 100 | 29.85 | ESE | 1 | 0.06 |
| 24 | 05/16 | 01:00 | 58 | 56 | 95 | 29.88 | SSE | 3 | 0.16 |